PWSweather.com
Personal Weather Stations
Station Observations
IHTIMAN1
Neighbourhood 1, IhtimanBG 2050

Neighbourhood 1IhtimanBG 2050

Lat: 42.436852, Lon: 23.817921

Elevation: 2066

Station Type: Oregon Scientific WMR968

http://ihtiman-meteo.com

High Low Average
Temperature 74.0°F23.3°C 49.8°F9.9°C 58.9°F14.9°C
Dew Point 63.2°F17.3°C 48.7°F9.3°C 55.1°F12.8°C
Winds 6.7 mph 10.8 kmh Calm Calm 1.0 mph S1.6 kmh S
Wind Gusts 8.0 mph12.9 kmh -- 1.0 mph1.6 kmh
Humidity 98% 65% 88%
Pressure 30.12 in1020.0 mb 30.03 in1016.9 mb -
Precipitation 0.00 in0.0 mm - -
Hour Temp Dew Point Humidity Winds Wind Gusts Pressure Precip Precip Rate Daily Precip Total
12:00 AM 56.3°F13.5°C 54.3°F12.4°C 93% Calm Calm -- 30.03 in1016.9 mb - 0.00 in0.0 mm 0.00 in0.0 mm
12:10 AM 56.0°F13.3°C 54.0°F12.2°C 93% Calm Calm -- 30.03 in1016.9 mb - 0.00 in0.0 mm 0.00 in0.0 mm
12:20 AM 55.6°F13.1°C 53.6°F12.0°C 93% Calm Calm -- 30.03 in1016.9 mb - 0.00 in0.0 mm 0.00 in0.0 mm
12:30 AM 55.2°F12.9°C 53.2°F11.8°C 93% Calm Calm -- 30.03 in1016.9 mb - 0.00 in0.0 mm 0.00 in0.0 mm
12:40 AM 54.9°F12.7°C 52.9°F11.6°C 93% Calm Calm -- 30.03 in1016.9 mb - 0.00 in0.0 mm 0.00 in0.0 mm
12:50 AM 54.5°F12.5°C 52.5°F11.4°C 93% Calm Calm -- 30.03 in1016.9 mb - 0.00 in0.0 mm 0.00 in0.0 mm
01:00 AM 54.1°F12.3°C 52.2°F11.2°C 93% Calm Calm -- 30.03 in1016.9 mb - 0.00 in0.0 mm 0.00 in0.0 mm
01:10 AM 53.7°F12.1°C 51.7°F10.9°C 93% Calm Calm -- 30.06 in1017.9 mb - 0.00 in0.0 mm 0.00 in0.0 mm
01:20 AM 53.6°F12.0°C 51.9°F11.1°C 94% Calm Calm -- 30.06 in1017.9 mb - 0.00 in0.0 mm 0.00 in0.0 mm
01:30 AM 53.4°F11.9°C 51.7°F10.9°C 94% Calm Calm -- 30.06 in1017.9 mb - 0.00 in0.0 mm 0.00 in0.0 mm
01:40 AM 53.4°F11.9°C 51.7°F10.9°C 94% Calm Calm -- 30.03 in1016.9 mb - 0.00 in0.0 mm 0.00 in0.0 mm
01:50 AM 53.4°F11.9°C 51.7°F10.9°C 94% Calm Calm -- 30.03 in1016.9 mb - 0.00 in0.0 mm 0.00 in0.0 mm
02:00 AM 53.1°F11.7°C 51.4°F10.8°C 94% Calm Calm -- 30.03 in1016.9 mb - 0.00 in0.0 mm 0.00 in0.0 mm
02:10 AM 53.1°F11.7°C 51.4°F10.8°C 94% Calm Calm -- 30.03 in1016.9 mb - 0.00 in0.0 mm 0.00 in0.0 mm
02:20 AM 52.9°F11.6°C 51.5°F10.8°C 95% Calm Calm -- 30.03 in1016.9 mb - 0.00 in0.0 mm 0.00 in0.0 mm
02:30 AM 52.7°F11.5°C 51.3°F10.7°C 95% Calm Calm -- 30.03 in1016.9 mb - 0.00 in0.0 mm 0.00 in0.0 mm
02:40 AM 52.3°F11.3°C 50.7°F10.4°C 94% Calm Calm -- 30.03 in1016.9 mb - 0.00 in0.0 mm 0.00 in0.0 mm
02:50 AM 52.0°F11.1°C 50.6°F10.3°C 95% Calm Calm -- 30.03 in1016.9 mb - 0.00 in0.0 mm 0.00 in0.0 mm
03:00 AM 51.6°F10.9°C 50.2°F10.1°C 95% Calm Calm -- 30.03 in1016.9 mb - 0.00 in0.0 mm 0.00 in0.0 mm
03:10 AM 51.6°F10.9°C 50.2°F10.1°C 95% Calm Calm -- 30.03 in1016.9 mb - 0.00 in0.0 mm 0.00 in0.0 mm
03:20 AM 51.4°F10.8°C 50.1°F10.1°C 95% Calm Calm -- 30.03 in1016.9 mb - 0.00 in0.0 mm 0.00 in0.0 mm
03:30 AM 51.3°F10.7°C 49.9°F9.9°C 95% Calm Calm -- 30.03 in1016.9 mb - 0.00 in0.0 mm 0.00 in0.0 mm
03:40 AM 51.1°F10.6°C 49.7°F9.8°C 95% Calm Calm -- 30.03 in1016.9 mb - 0.00 in0.0 mm 0.00 in0.0 mm
03:50 AM 51.1°F10.6°C 49.7°F9.8°C 95% Calm Calm -- 30.03 in1016.9 mb - 0.00 in0.0 mm 0.00 in0.0 mm
04:00 AM 51.3°F10.7°C 49.9°F9.9°C 95% Calm Calm -- 30.03 in1016.9 mb - 0.00 in0.0 mm 0.00 in0.0 mm
04:10 AM 51.3°F10.7°C 49.9°F9.9°C 95% Calm Calm -- 30.03 in1016.9 mb - 0.00 in0.0 mm 0.00 in0.0 mm
04:20 AM 51.1°F10.6°C 49.7°F9.8°C 95% Calm Calm -- 30.03 in1016.9 mb - 0.00 in0.0 mm 0.00 in0.0 mm
04:30 AM 50.9°F10.5°C 49.5°F9.7°C 95% Calm Calm -- 30.03 in1016.9 mb - 0.00 in0.0 mm 0.00 in0.0 mm
04:40 AM 50.7°F10.4°C 49.6°F9.8°C 96% Calm Calm -- 30.06 in1017.9 mb - 0.00 in0.0 mm 0.00 in0.0 mm
04:50 AM 50.5°F10.3°C 49.4°F9.7°C 96% Calm Calm -- 30.06 in1017.9 mb - 0.00 in0.0 mm 0.00 in0.0 mm
05:00 AM 50.2°F10.1°C 49.1°F9.5°C 96% Calm Calm -- 30.06 in1017.9 mb - 0.00 in0.0 mm 0.00 in0.0 mm
05:10 AM 50.0°F10.0°C 48.9°F9.4°C 96% Calm Calm -- 30.06 in1017.9 mb - 0.00 in0.0 mm 0.00 in0.0 mm
05:20 AM 49.8°F9.9°C 48.7°F9.3°C 96% Calm Calm -- 30.06 in1017.9 mb - 0.00 in0.0 mm 0.00 in0.0 mm
05:30 AM 49.8°F9.9°C 48.7°F9.3°C 96% Calm Calm -- 30.06 in1017.9 mb - 0.00 in0.0 mm 0.00 in0.0 mm
05:40 AM 49.8°F9.9°C 48.7°F9.3°C 96% Calm Calm -- 30.06 in1017.9 mb - 0.00 in0.0 mm 0.00 in0.0 mm
05:50 AM 49.8°F9.9°C 48.7°F9.3°C 96% Calm Calm -- 30.06 in1017.9 mb - 0.00 in0.0 mm 0.00 in0.0 mm
06:00 AM 50.2°F10.1°C 49.1°F9.5°C 96% Calm Calm -- 30.06 in1017.9 mb - 0.00 in0.0 mm 0.00 in0.0 mm
06:10 AM 50.4°F10.2°C 49.3°F9.6°C 96% Calm Calm -- 30.06 in1017.9 mb - 0.00 in0.0 mm 0.00 in0.0 mm
06:20 AM 50.7°F10.4°C 49.6°F9.8°C 96% Calm Calm -- 30.06 in1017.9 mb - 0.00 in0.0 mm 0.00 in0.0 mm
06:30 AM 51.1°F10.6°C 50.0°F10.0°C 96% Calm Calm -- 30.06 in1017.9 mb - 0.00 in0.0 mm 0.00 in0.0 mm
06:40 AM 51.4°F10.8°C 50.3°F10.2°C 96% Calm Calm -- 30.06 in1017.9 mb - 0.00 in0.0 mm 0.00 in0.0 mm
06:50 AM 51.8°F11.0°C 50.7°F10.4°C 96% Calm Calm -- 30.06 in1017.9 mb - 0.00 in0.0 mm 0.00 in0.0 mm
07:00 AM 52.5°F11.4°C 51.4°F10.8°C 96% Calm Calm -- 30.06 in1017.9 mb - 0.00 in0.0 mm 0.00 in0.0 mm
07:10 AM 53.5°F11.9°C 52.7°F11.5°C 97% Calm Calm -- 30.06 in1017.9 mb - 0.00 in0.0 mm 0.00 in0.0 mm
07:20 AM 54.7°F12.6°C 53.9°F12.2°C 97% Calm Calm -- 30.06 in1017.9 mb - 0.00 in0.0 mm 0.00 in0.0 mm
07:30 AM 56.2°F13.4°C 55.6°F13.1°C 98% Calm Calm -- 30.09 in1019.0 mb - 0.00 in0.0 mm 0.00 in0.0 mm
07:40 AM 57.9°F14.4°C 57.4°F14.1°C 98% Calm Calm -- 30.09 in1019.0 mb - 0.00 in0.0 mm 0.00 in0.0 mm
07:50 AM 59.2°F15.1°C 58.3°F14.6°C 97% Calm Calm -- 30.09 in1019.0 mb - 0.00 in0.0 mm 0.00 in0.0 mm
08:00 AM 60.4°F15.8°C 59.2°F15.1°C 96% Calm Calm -- 30.09 in1019.0 mb - 0.00 in0.0 mm 0.00 in0.0 mm
08:10 AM 61.4°F16.3°C 59.6°F15.3°C 94% Calm Calm -- 30.09 in1019.0 mb - 0.00 in0.0 mm 0.00 in0.0 mm
08:20 AM 62.6°F17.0°C 60.2°F15.7°C 92% Calm Calm -- 30.09 in1019.0 mb - 0.00 in0.0 mm 0.00 in0.0 mm
08:30 AM 63.5°F17.5°C 60.8°F16.0°C 91% Calm Calm -- 30.09 in1019.0 mb - 0.00 in0.0 mm 0.00 in0.0 mm
08:40 AM 64.7°F18.2°C 61.7°F16.5°C 90% Calm Calm -- 30.09 in1019.0 mb - 0.00 in0.0 mm 0.00 in0.0 mm
08:50 AM 66.0°F18.9°C 62.3°F16.8°C 88% Calm Calm -- 30.09 in1019.0 mb - 0.00 in0.0 mm 0.00 in0.0 mm
09:00 AM 67.1°F19.5°C 62.8°F17.1°C 86% Calm Calm -- 30.09 in1019.0 mb - 0.00 in0.0 mm 0.00 in0.0 mm
09:10 AM 68.1°F20.1°C 62.4°F16.9°C 82% 4.9 mph NNW7.9 kmh NNW 6.3 mph10.1 kmh 30.09 in1019.0 mb - 0.00 in0.0 mm 0.00 in0.0 mm
09:20 AM 68.7°F20.4°C 61.6°F16.4°C 78% 4.9 mph NNW7.9 kmh NNW 6.3 mph10.1 kmh 30.09 in1019.0 mb - 0.00 in0.0 mm 0.00 in0.0 mm
09:30 AM 69.4°F20.8°C 61.9°F16.6°C 77% 4.9 mph NNW7.9 kmh NNW 6.3 mph10.1 kmh 30.09 in1019.0 mb - 0.00 in0.0 mm 0.00 in0.0 mm
09:40 AM 70.3°F21.3°C 62.8°F17.1°C 77% 4.9 mph NNW7.9 kmh NNW 6.3 mph10.1 kmh 30.09 in1019.0 mb - 0.00 in0.0 mm 0.00 in0.0 mm
09:50 AM 71.0°F21.7°C 62.7°F17.1°C 75% 4.9 mph NNW7.9 kmh NNW 6.3 mph10.1 kmh 30.09 in1019.0 mb - 0.00 in0.0 mm 0.00 in0.0 mm
10:00 AM 71.8°F22.1°C 62.7°F17.1°C 73% 5.4 mph NNW8.7 kmh NNW 3.6 mph5.8 kmh 30.09 in1019.0 mb - 0.00 in0.0 mm 0.00 in0.0 mm
10:10 AM 72.5°F22.5°C 62.5°F16.9°C 71% 2.7 mph WSW4.3 kmh WSW 3.6 mph5.8 kmh 30.09 in1019.0 mb - 0.00 in0.0 mm 0.00 in0.0 mm
10:20 AM 73.2°F22.9°C 63.2°F17.3°C 71% 2.7 mph WSW4.3 kmh WSW 3.6 mph5.8 kmh 30.09 in1019.0 mb - 0.00 in0.0 mm 0.00 in0.0 mm
10:30 AM 72.9°F22.7°C 62.9°F17.2°C 71% 6.3 mph NW10.1 kmh NW 5.4 mph8.7 kmh 30.09 in1019.0 mb - 0.00 in0.0 mm 0.00 in0.0 mm
10:40 AM 73.9°F23.3°C 62.3°F16.8°C 67% 4.9 mph W7.9 kmh W 5.4 mph8.7 kmh 30.09 in1019.0 mb - 0.00 in0.0 mm 0.00 in0.0 mm
10:50 AM 74.0°F23.3°C 61.5°F16.4°C 65% 4.9 mph NW7.9 kmh NW 6.3 mph10.1 kmh 30.09 in1019.0 mb - 0.00 in0.0 mm 0.00 in0.0 mm
11:00 AM 72.6°F22.6°C 60.5°F15.8°C 66% 5.8 mph NW9.3 kmh NW 8.0 mph12.9 kmh 30.09 in1019.0 mb - 0.00 in0.0 mm 0.00 in0.0 mm
11:10 AM 70.9°F21.6°C 60.2°F15.7°C 69% 6.7 mph NW10.8 kmh NW 6.7 mph10.8 kmh 30.09 in1019.0 mb - 0.00 in0.0 mm 0.00 in0.0 mm
11:20 AM 70.0°F21.1°C 60.5°F15.8°C 72% 3.1 mph NNW5.0 kmh NNW 4.0 mph6.4 kmh 30.09 in1019.0 mb - 0.00 in0.0 mm 0.00 in0.0 mm
11:30 AM 69.8°F21.0°C 61.1°F16.2°C 74% 0.8 mph NE1.3 kmh NE 3.1 mph5.0 kmh 30.09 in1019.0 mb - 0.00 in0.0 mm 0.00 in0.0 mm
11:40 AM 70.5°F21.4°C 61.8°F16.6°C 74% 2.5 mph N4.0 kmh N 3.6 mph5.8 kmh 30.09 in1019.0 mb - 0.00 in0.0 mm 0.00 in0.0 mm
11:50 AM 71.9°F22.2°C 63.2°F17.3°C 74% 3.6 mph S5.8 kmh S 6.3 mph10.1 kmh 30.09 in1019.0 mb - 0.00 in0.0 mm 0.00 in0.0 mm
12:30 PM 69.8°F21.0°C 60.8°F16.0°C 73% 5.4 mph SE8.7 kmh SE 6.3 mph10.1 kmh 30.09 in1019.0 mb - 0.00 in0.0 mm 0.00 in0.0 mm
04:00 PM 72.0°F22.2°C 59.6°F15.3°C 65% Calm Calm -- 30.06 in1017.9 mb - 0.00 in0.0 mm 0.00 in0.0 mm
08:00 PM 65.4°F18.6°C 59.1°F15.1°C 80% Calm Calm -- 30.06 in1017.9 mb - 0.00 in0.0 mm 0.00 in0.0 mm
08:10 PM 64.8°F18.2°C 58.8°F14.9°C 81% Calm Calm -- 30.09 in1019.0 mb - 0.00 in0.0 mm 0.00 in0.0 mm
08:20 PM 64.2°F17.9°C 58.3°F14.6°C 81% 1.6 mph SE2.6 kmh SE 4.0 mph6.4 kmh 30.09 in1019.0 mb - 0.00 in0.0 mm 0.00 in0.0 mm
08:30 PM 63.9°F17.7°C 58.3°F14.6°C 82% Calm Calm -- 30.09 in1019.0 mb - 0.00 in0.0 mm 0.00 in0.0 mm
08:40 PM 63.3°F17.4°C 57.7°F14.3°C 82% 1.4 mph NE2.3 kmh NE 4.0 mph6.4 kmh 30.09 in1019.0 mb - 0.00 in0.0 mm 0.00 in0.0 mm
08:50 PM 62.8°F17.1°C 57.3°F14.1°C 82% Calm Calm -- 30.09 in1019.0 mb - 0.00 in0.0 mm 0.00 in0.0 mm
09:00 PM 62.2°F16.8°C 57.0°F13.9°C 83% 1.6 mph S2.6 kmh S 3.1 mph5.0 kmh 30.09 in1019.0 mb - 0.00 in0.0 mm 0.00 in0.0 mm
09:10 PM 61.8°F16.6°C 56.9°F13.8°C 84% 2.5 mph SE4.0 kmh SE 3.6 mph5.8 kmh 30.12 in1020.0 mb - 0.00 in0.0 mm 0.00 in0.0 mm
09:20 PM 61.3°F16.3°C 56.8°F13.8°C 85% Calm Calm -- 30.12 in1020.0 mb - 0.00 in0.0 mm 0.00 in0.0 mm
09:30 PM 60.8°F16.0°C 56.3°F13.5°C 85% Calm Calm -- 30.12 in1020.0 mb - 0.00 in0.0 mm 0.00 in0.0 mm
09:40 PM 60.4°F15.8°C 56.2°F13.4°C 86% Calm Calm 2.7 mph4.3 kmh 30.12 in1020.0 mb - 0.00 in0.0 mm 0.00 in0.0 mm
09:50 PM 59.9°F15.5°C 55.7°F13.2°C 86% Calm Calm -- 30.12 in1020.0 mb - 0.00 in0.0 mm 0.00 in0.0 mm
10:00 PM 59.5°F15.3°C 55.3°F12.9°C 86% Calm Calm -- 30.12 in1020.0 mb - 0.00 in0.0 mm 0.00 in0.0 mm
10:10 PM 59.2°F15.1°C 55.0°F12.8°C 86% Calm Calm -- 30.12 in1020.0 mb - 0.00 in0.0 mm 0.00 in0.0 mm
10:20 PM 58.8°F14.9°C 55.0°F12.8°C 87% Calm Calm -- 30.12 in1020.0 mb - 0.00 in0.0 mm 0.00 in0.0 mm
10:30 PM 58.5°F14.7°C 54.9°F12.7°C 88% Calm Calm -- 30.12 in1020.0 mb - 0.00 in0.0 mm 0.00 in0.0 mm
10:40 PM 58.3°F14.6°C 54.7°F12.6°C 88% Calm Calm -- 30.12 in1020.0 mb - 0.00 in0.0 mm 0.00 in0.0 mm
10:50 PM 58.3°F14.6°C 54.7°F12.6°C 88% Calm Calm -- 30.12 in1020.0 mb - 0.00 in0.0 mm 0.00 in0.0 mm
11:00 PM 58.1°F14.5°C 54.6°F12.6°C 88% Calm Calm -- 30.12 in1020.0 mb - 0.00 in0.0 mm 0.00 in0.0 mm
11:10 PM 57.7°F14.3°C 54.5°F12.5°C 89% Calm Calm -- 30.12 in1020.0 mb - 0.00 in0.0 mm 0.00 in0.0 mm
11:20 PM 57.6°F14.2°C 54.3°F12.4°C 89% Calm Calm -- 30.12 in1020.0 mb - 0.00 in0.0 mm 0.00 in0.0 mm
11:30 PM 57.2°F14.0°C 54.0°F12.2°C 89% 2.7 mph SE4.3 kmh SE 3.6 mph5.8 kmh 30.12 in1020.0 mb - 0.00 in0.0 mm 0.00 in0.0 mm
11:40 PM 56.8°F13.8°C 53.9°F12.2°C 90% Calm Calm -- 30.12 in1020.0 mb - 0.00 in0.0 mm 0.00 in0.0 mm
11:50 PM 56.5°F13.6°C 53.6°F12.0°C 90% Calm Calm -- 30.12 in1020.0 mb - 0.00 in0.0 mm 0.00 in0.0 mm